Current Weather

Odiham

Odiham, United Kingdom (EGVO)

Report from: Friday, February 23, 2024 7:50 PM GMT
Current time: Friday, February 23, 2024 8:13 PM GMT

Nearby weather – Weather history – Daily summaries
Weather forecast

Temperature2.0°C (35.6°F)
Wind chill-0.2°C (31.7°F)
Dew point1.0°C (33.8°F)
Winds 4 kts (2.1 m/s, 4.6 mph) South-Southwest (210°)
Visibility6.2 mi. (10 km)
Clouds Sky clear
Altimeter29.21 in.Hg (989 mB)
Relative humidity93 %
Density altitude-648 ft. (-197 m)
Remarks Fully automated report
No clouds detected
Flight conditions Visual Meteorological Conditions
Raw dataEGVO 231950Z AUTO 21004KT 9999 NCD 02/01 Q0989
An error has occurred. This application may no longer respond until reloaded. Reload 🗙